createdAt,value
2023-01-13T00:00:22.417Z,7.71
2023-01-13T00:02:52.487Z,7.63
2023-01-13T00:05:26.821Z,7.65
2023-01-13T00:07:56.877Z,7.64
2023-01-13T00:10:29.737Z,7.84
2023-01-13T00:12:59.929Z,7.85
2023-01-13T00:15:31.473Z,7.82
2023-01-13T00:18:01.696Z,7.75
2023-01-13T00:20:31.793Z,7.87
2023-01-13T00:23:01.991Z,7.78
2023-01-13T00:25:30.289Z,7.75
2023-01-13T00:27:58.728Z,7.74
2023-01-13T00:30:27.173Z,7.76
2023-01-13T00:32:55.623Z,7.85
2023-01-13T00:35:24.017Z,7.79
2023-01-13T00:37:52.453Z,7.78
2023-01-13T00:40:20.849Z,7.93
2023-01-13T00:43:10.325Z,7.94
2023-01-13T00:45:40.357Z,7.93
2023-01-13T00:48:10.537Z,7.77
2023-01-13T00:50:41.104Z,7.86
2023-01-13T00:53:11.295Z,7.81
2023-01-13T00:55:41.314Z,7.83
2023-01-13T00:58:11.385Z,7.92
2023-01-13T01:00:42.262Z,7.86
2023-01-13T01:03:12.396Z,7.97
2023-01-13T01:05:42.454Z,8.09
2023-01-13T01:08:13.043Z,8.01
2023-01-13T01:10:43.161Z,7.91
2023-01-13T01:13:17.491Z,7.93
2023-01-13T01:15:48.323Z,7.98
2023-01-13T01:18:24.155Z,7.84
2023-01-13T01:20:54.222Z,7.80
2023-01-13T01:23:26.532Z,8.12
2023-01-13T01:26:11.771Z,8.12
2023-01-13T01:28:42.844Z,7.98
2023-01-13T01:31:32.169Z,7.99
2023-01-13T01:34:02.871Z,7.84
2023-01-13T01:36:34.969Z,8.03
2023-01-13T01:39:05.530Z,8.06
2023-01-13T01:41:39.685Z,8.02
2023-01-13T01:44:41.930Z,8.07
2023-01-13T01:47:20.014Z,8.12
2023-01-13T01:49:50.045Z,8.09
2023-01-13T01:52:33.880Z,8.22
2023-01-13T01:55:24.327Z,8.16
2023-01-13T01:58:21.407Z,8.14
2023-01-13T02:00:52.635Z,8.35
2023-01-13T02:03:24.262Z,8.29
2023-01-13T02:05:54.479Z,8.39
2023-01-13T02:08:25.512Z,8.52
2023-01-13T02:10:55.609Z,8.40
2023-01-13T02:13:25.973Z,8.68
2023-01-13T02:16:22.203Z,8.42
2023-01-13T02:19:32.620Z,8.39
2023-01-13T02:22:36.963Z,8.25
2023-01-13T02:25:32.799Z,8.18
2023-01-13T02:28:25.359Z,8.36
2023-01-13T02:31:34.594Z,8.24
2023-01-13T02:34:45.630Z,8.15
2023-01-13T02:37:32.859Z,8.14
2023-01-13T02:40:34.666Z,8.05
2023-01-13T02:43:42.139Z,8.06
2023-01-13T02:46:49.634Z,7.96
2023-01-13T02:49:47.633Z,8.09
2023-01-13T02:53:07.604Z,8.12
2023-01-13T02:55:54.316Z,8.08
2023-01-13T02:58:32.397Z,8.05
2023-01-13T03:01:02.659Z,8.04
2023-01-13T03:03:32.551Z,8.10
2023-01-13T03:06:51.642Z,8.00
2023-01-13T03:09:44.652Z,7.93
2023-01-13T03:13:15.618Z,8.03
2023-01-13T03:16:24.029Z,7.99
2023-01-13T03:19:24.955Z,7.98
2023-01-13T03:22:37.452Z,8.02
2023-01-13T03:25:36.059Z,7.99
2023-01-13T03:28:28.209Z,8.05
2023-01-13T03:31:17.570Z,7.90
2023-01-13T03:34:09.297Z,8.09
2023-01-13T03:36:46.247Z,8.05
2023-01-13T03:39:29.402Z,8.07
2023-01-13T03:42:19.713Z,7.94
2023-01-13T03:45:05.994Z,8.03
2023-01-13T03:47:57.521Z,8.14
2023-01-13T03:50:44.324Z,8.22
2023-01-13T03:53:39.737Z,8.25
2023-01-13T03:56:40.084Z,8.26
2023-01-13T03:59:24.074Z,8.16
2023-01-13T04:02:40.737Z,8.21
2023-01-13T04:05:15.544Z,8.02
2023-01-13T04:07:55.730Z,8.15
2023-01-13T04:11:03.889Z,8.18
2023-01-13T04:13:43.341Z,8.25
2023-01-13T04:16:14.965Z,8.20
2023-01-13T04:18:45.080Z,8.03
2023-01-13T04:21:15.144Z,8.03
2023-01-13T04:23:45.241Z,7.95
2023-01-13T04:26:15.288Z,7.92
2023-01-13T04:28:46.209Z,7.99
2023-01-13T04:31:19.556Z,7.94
2023-01-13T04:33:52.595Z,7.84
2023-01-13T04:36:27.636Z,7.76
2023-01-13T04:38:57.675Z,7.74
2023-01-13T04:41:26.224Z,7.69
2023-01-13T04:43:54.476Z,7.65
2023-01-13T04:46:23.023Z,7.64
2023-01-13T04:48:51.428Z,7.71
2023-01-13T04:51:19.970Z,7.69
2023-01-13T04:53:48.285Z,7.78
2023-01-13T04:56:16.586Z,7.71
2023-01-13T04:58:45.083Z,7.61
2023-01-13T05:01:13.518Z,7.89
2023-01-13T05:03:41.938Z,8.07
2023-01-13T05:06:10.291Z,7.92
2023-01-13T05:08:38.727Z,8.09
2023-01-13T05:11:26.196Z,7.93
2023-01-13T05:14:14.515Z,7.78
2023-01-13T05:17:00.245Z,7.87
2023-01-13T05:19:39.295Z,7.72
2023-01-13T05:22:27.839Z,7.72
2023-01-13T05:25:16.193Z,7.71
2023-01-13T05:27:46.152Z,7.74
2023-01-13T05:30:18.016Z,7.63
2023-01-13T05:32:48.210Z,7.62
2023-01-13T05:35:20.537Z,7.93
2023-01-13T05:37:48.331Z,7.94
2023-01-13T05:40:37.996Z,7.92
2023-01-13T05:43:19.959Z,7.88
2023-01-13T05:46:04.072Z,7.95
2023-01-13T05:48:42.727Z,7.94
2023-01-13T05:51:13.213Z,8.20
2023-01-13T05:53:42.488Z,8.29
2023-01-13T05:56:11.652Z,8.32
2023-01-13T05:58:40.802Z,8.31
2023-01-13T06:01:11.401Z,8.38
2023-01-13T06:03:41.277Z,8.45
2023-01-13T06:06:11.055Z,8.37
2023-01-13T06:08:40.798Z,8.43
2023-01-13T06:11:10.635Z,8.35
2023-01-13T06:13:42.522Z,8.38
2023-01-13T06:16:10.850Z,8.35
2023-01-13T06:18:40.380Z,8.31
2023-01-13T06:21:10.083Z,8.32
2023-01-13T06:23:40.292Z,8.47
2023-01-13T06:26:25.159Z,8.59
2023-01-13T06:28:54.956Z,8.55
2023-01-13T06:31:28.733Z,8.35
2023-01-13T06:34:14.667Z,8.30
2023-01-13T06:36:53.850Z,8.25
2023-01-13T06:39:31.172Z,8.11
2023-01-13T06:42:21.988Z,8.07
2023-01-13T06:44:52.069Z,7.97
2023-01-13T06:47:22.529Z,8.15
2023-01-13T06:49:53.403Z,8.07
2023-01-13T06:52:23.595Z,8.16
2023-01-13T06:54:53.736Z,8.19
2023-01-13T06:57:24.955Z,8.29
2023-01-13T06:59:52.311Z,8.38
2023-01-13T07:02:20.740Z,8.40
2023-01-13T07:04:50.809Z,8.45
2023-01-13T07:07:20.817Z,8.29
2023-01-13T07:09:50.826Z,8.18
2023-01-13T07:12:24.141Z,8.28
2023-01-13T07:15:12.713Z,8.38
2023-01-13T07:17:42.708Z,8.43
2023-01-13T07:20:13.121Z,8.38
2023-01-13T07:22:43.314Z,8.19
2023-01-13T07:25:13.389Z,8.23
2023-01-13T07:27:43.386Z,8.26
2023-01-13T07:30:14.017Z,8.23
2023-01-13T07:32:44.021Z,8.13
2023-01-13T07:35:14.074Z,8.08
2023-01-13T07:37:44.068Z,8.06
2023-01-13T07:40:13.076Z,7.95
2023-01-13T07:42:59.165Z,7.83
2023-01-13T07:45:29.188Z,7.80
2023-01-13T07:47:58.899Z,7.80
2023-01-13T07:50:27.487Z,7.65
2023-01-13T07:52:59.167Z,7.89
2023-01-13T07:55:27.232Z,7.82
2023-01-13T07:57:55.840Z,7.82
2023-01-13T08:00:24.610Z,7.63
2023-01-13T08:02:52.522Z,7.47
2023-01-13T08:05:20.852Z,7.42
2023-01-13T08:07:49.323Z,7.38
2023-01-13T08:10:17.822Z,7.57
2023-01-13T08:13:04.772Z,7.65
2023-01-13T08:15:34.854Z,7.79
2023-01-13T08:18:04.844Z,7.60
2023-01-13T08:20:34.790Z,7.76
2023-01-13T08:23:07.242Z,7.81
2023-01-13T08:25:37.783Z,7.77
2023-01-13T08:28:08.083Z,7.59
2023-01-13T08:30:37.380Z,7.65
2023-01-13T08:33:10.704Z,7.59
2023-01-13T08:35:42.429Z,7.81
2023-01-13T08:38:12.543Z,7.77
2023-01-13T08:40:42.127Z,7.85
2023-01-13T08:43:11.931Z,8.07
2023-01-13T08:45:41.691Z,7.95
2023-01-13T08:48:11.684Z,7.79
2023-01-13T08:50:41.373Z,7.98
2023-01-13T08:53:11.235Z,7.89
2023-01-13T08:55:41.081Z,8.03
2023-01-13T08:58:15.607Z,7.93
2023-01-13T09:00:46.125Z,7.99
2023-01-13T09:03:16.091Z,8.02
2023-01-13T09:05:46.037Z,7.87
2023-01-13T09:08:15.825Z,7.97
2023-01-13T09:10:45.722Z,7.97
2023-01-13T09:13:15.875Z,8.02
2023-01-13T09:15:46.649Z,7.80
2023-01-13T09:18:16.485Z,7.85
2023-01-13T09:20:44.879Z,7.90
2023-01-13T09:23:13.396Z,7.88
2023-01-13T09:25:41.726Z,7.77
2023-01-13T09:28:10.241Z,7.77
2023-01-13T09:30:38.613Z,7.59
2023-01-13T09:33:25.848Z,7.47
2023-01-13T09:35:59.390Z,7.43
2023-01-13T09:38:29.463Z,7.50
2023-01-13T09:40:59.262Z,7.52
2023-01-13T09:43:56.068Z,7.51
2023-01-13T09:46:47.519Z,7.51
2023-01-13T09:49:40.517Z,7.52
2023-01-13T09:52:26.793Z,7.33
2023-01-13T09:55:16.908Z,7.32
2023-01-13T09:57:46.981Z,7.22
2023-01-13T10:00:33.590Z,7.31
2023-01-13T10:03:31.870Z,7.22
2023-01-13T10:06:19.208Z,7.40
2023-01-13T10:08:51.158Z,7.30
2023-01-13T10:11:43.895Z,7.30
2023-01-13T10:14:38.108Z,7.11
2023-01-13T10:17:26.513Z,7.12
2023-01-13T10:20:19.002Z,7.14
2023-01-13T10:23:34.546Z,7.25
2023-01-13T10:26:49.061Z,7.50
2023-01-13T10:29:28.403Z,7.45
2023-01-13T10:32:01.058Z,7.40
2023-01-13T10:34:31.142Z,7.29
2023-01-13T10:37:09.371Z,7.47
2023-01-13T10:39:45.967Z,7.38
2023-01-13T10:42:22.965Z,7.44
2023-01-13T10:44:57.007Z,7.55
2023-01-13T10:47:37.024Z,7.91
2023-01-13T10:50:13.022Z,7.89
2023-01-13T10:53:16.249Z,7.75
2023-01-13T10:56:04.704Z,7.74
2023-01-13T10:58:34.788Z,7.73
2023-01-13T11:01:07.404Z,7.87
2023-01-13T11:03:44.413Z,7.87
2023-01-13T11:06:28.829Z,7.93
2023-01-13T11:08:59.469Z,8.12
2023-01-13T11:11:45.652Z,8.18
2023-01-13T11:14:48.704Z,8.42
2023-01-13T11:17:30.078Z,8.41
2023-01-13T11:20:44.414Z,8.58
2023-01-13T11:23:35.487Z,8.59
2023-01-13T11:26:23.999Z,8.42
2023-01-13T11:29:22.540Z,8.46
2023-01-13T11:32:16.841Z,8.32
2023-01-13T11:35:00.713Z,8.25
2023-01-13T11:37:47.526Z,8.32
2023-01-13T11:40:42.659Z,8.25
2023-01-13T11:44:02.707Z,8.08
2023-01-13T11:46:33.098Z,8.11
2023-01-13T11:49:05.125Z,8.14
2023-01-13T11:52:20.102Z,8.00
2023-01-13T11:55:35.168Z,8.08
2023-01-13T11:58:51.638Z,8.16
2023-01-13T12:01:56.870Z,8.06
2023-01-13T12:04:57.981Z,8.20
2023-01-13T12:07:58.811Z,8.33
2023-01-13T12:11:08.903Z,8.01
2023-01-13T12:14:27.430Z,8.08
2023-01-13T12:17:03.837Z,8.00
2023-01-13T12:19:33.910Z,8.03
2023-01-13T12:22:27.975Z,8.18
2023-01-13T12:25:24.051Z,8.17
2023-01-13T12:28:14.381Z,8.16
2023-01-13T12:31:03.863Z,8.10
2023-01-13T12:34:46.026Z,8.27
2023-01-13T12:37:44.867Z,8.23
2023-01-13T12:40:56.544Z,8.36
2023-01-13T12:43:43.828Z,8.27
2023-01-13T12:46:19.636Z,8.27
2023-01-13T12:48:56.754Z,8.34
2023-01-13T12:51:52.034Z,8.41
2023-01-13T12:54:31.041Z,8.47
2023-01-13T12:57:01.748Z,8.46
2023-01-13T12:59:34.686Z,8.49
2023-01-13T13:02:13.412Z,8.52
2023-01-13T13:05:00.355Z,8.48
2023-01-13T13:07:30.204Z,8.56
2023-01-13T13:10:39.001Z,8.48
2023-01-13T13:13:48.554Z,8.36
2023-01-13T13:16:27.508Z,8.46
2023-01-13T13:19:20.046Z,8.53
2023-01-13T13:22:14.415Z,8.51
2023-01-13T13:25:04.032Z,8.52
2023-01-13T13:27:44.222Z,8.38
2023-01-13T13:30:37.490Z,8.54
2023-01-13T13:34:09.123Z,8.42
2023-01-13T13:37:28.937Z,8.25
2023-01-13T13:40:28.980Z,8.17
2023-01-13T13:43:18.130Z,8.24
2023-01-13T13:46:11.250Z,8.31
2023-01-13T13:48:54.324Z,8.45
2023-01-13T13:51:41.578Z,8.26
2023-01-13T13:54:22.633Z,8.28
2023-01-13T13:56:52.770Z,8.18
2023-01-13T13:59:30.597Z,8.29
2023-01-13T14:02:03.971Z,8.23
2023-01-13T14:04:39.164Z,8.17
2023-01-13T14:07:21.879Z,8.11
2023-01-13T14:09:54.922Z,7.83
2023-01-13T14:12:27.614Z,7.85
2023-01-13T14:14:57.537Z,7.87
2023-01-13T14:17:31.231Z,7.97
2023-01-13T14:20:14.667Z,7.85
2023-01-13T14:22:57.448Z,7.90
2023-01-13T14:25:48.854Z,7.90
2023-01-13T14:28:37.435Z,8.14
2023-01-13T14:31:09.768Z,8.03
2023-01-13T14:33:52.642Z,7.87
2023-01-13T14:36:33.093Z,7.87
2023-01-13T14:39:05.888Z,7.90
2023-01-13T14:41:54.375Z,7.85
2023-01-13T14:44:36.598Z,7.90
2023-01-13T14:47:28.141Z,7.88
2023-01-13T14:50:23.515Z,7.65
2023-01-13T14:52:57.294Z,7.43
2023-01-13T14:55:40.833Z,7.34
2023-01-13T14:58:22.632Z,7.28
2023-01-13T15:01:36.609Z,7.29
2023-01-13T15:04:32.240Z,7.28
2023-01-13T15:07:04.417Z,7.09
2023-01-13T15:09:45.089Z,7.17
2023-01-13T15:12:37.881Z,7.29
2023-01-13T15:15:37.968Z,7.07
2023-01-13T15:18:17.432Z,7.06
2023-01-13T15:20:47.600Z,7.04
2023-01-13T15:23:20.696Z,6.99
2023-01-13T15:25:51.244Z,7.09
2023-01-13T15:28:27.930Z,7.00
2023-01-13T15:31:00.747Z,7.01
2023-01-13T15:33:31.025Z,6.96
2023-01-13T15:36:01.956Z,6.86
2023-01-13T15:38:31.964Z,6.78
2023-01-13T15:41:01.955Z,6.78
2023-01-13T15:43:50.693Z,6.75
2023-01-13T15:46:38.485Z,6.65
2023-01-13T15:49:25.361Z,6.78
2023-01-13T15:51:55.417Z,6.71
2023-01-13T15:54:25.476Z,6.63
2023-01-13T15:56:55.657Z,6.72
2023-01-13T15:59:28.378Z,6.80
2023-01-13T16:01:58.352Z,6.92
2023-01-13T16:04:28.355Z,6.73
2023-01-13T16:06:59.472Z,6.72
2023-01-13T16:09:29.501Z,6.75
2023-01-13T16:11:59.491Z,6.80
2023-01-13T16:14:29.574Z,6.92
2023-01-13T16:17:02.522Z,7.06
2023-01-13T16:19:31.666Z,7.02
2023-01-13T16:21:59.877Z,6.90
2023-01-13T16:24:27.903Z,6.90
2023-01-13T16:26:56.320Z,7.08
2023-01-13T16:29:24.791Z,7.10
2023-01-13T16:31:53.206Z,6.98
2023-01-13T16:34:21.670Z,6.99
2023-01-13T16:36:50.329Z,7.05
2023-01-13T16:39:22.870Z,6.96
2023-01-13T16:41:53.093Z,7.07
2023-01-13T16:44:21.357Z,6.88
2023-01-13T16:46:50.006Z,6.77
2023-01-13T16:49:18.554Z,6.75
2023-01-13T16:51:46.804Z,6.81
2023-01-13T16:54:15.364Z,6.64
2023-01-13T16:56:44.461Z,6.58
2023-01-13T16:59:15.212Z,6.54
2023-01-13T17:01:47.673Z,6.49
2023-01-13T17:04:23.558Z,6.52
2023-01-13T17:07:02.934Z,6.50
2023-01-13T17:09:32.946Z,6.59
2023-01-13T17:12:03.057Z,6.38
2023-01-13T17:14:33.103Z,6.51
2023-01-13T17:17:03.180Z,6.45
2023-01-13T17:19:33.340Z,6.41
2023-01-13T17:22:03.414Z,6.47
2023-01-13T17:24:35.173Z,6.57
2023-01-13T17:27:05.286Z,6.61
2023-01-13T17:29:35.710Z,6.50
2023-01-13T17:32:06.481Z,6.51
2023-01-13T17:34:36.464Z,6.43
2023-01-13T17:37:06.785Z,6.43
2023-01-13T17:39:36.860Z,6.48
2023-01-13T17:42:12.378Z,6.57
2023-01-13T17:44:43.112Z,6.71
2023-01-13T17:47:13.112Z,6.72
2023-01-13T17:49:43.092Z,6.69
2023-01-13T17:52:13.363Z,6.63
2023-01-13T17:54:43.907Z,6.75
2023-01-13T17:57:13.908Z,6.59
2023-01-13T17:59:44.012Z,6.43
2023-01-13T18:02:12.901Z,6.45
2023-01-13T18:04:42.073Z,6.48
2023-01-13T18:07:09.446Z,6.51
2023-01-13T18:09:38.192Z,6.49
2023-01-13T18:12:11.720Z,6.46
2023-01-13T18:14:42.287Z,6.54
2023-01-13T18:17:12.529Z,6.43
2023-01-13T18:20:01.345Z,6.37
2023-01-13T18:22:50.196Z,6.32
2023-01-13T18:25:39.056Z,6.35
2023-01-13T18:28:09.066Z,6.31
2023-01-13T18:30:39.114Z,6.30
2023-01-13T18:33:09.172Z,6.25
2023-01-13T18:35:40.661Z,6.25
2023-01-13T18:38:28.763Z,6.34
2023-01-13T18:40:58.782Z,6.36
2023-01-13T18:43:33.460Z,6.23
2023-01-13T18:46:03.588Z,6.38
2023-01-13T18:48:33.685Z,6.33
2023-01-13T18:51:03.903Z,6.31
2023-01-13T18:53:34.179Z,6.27
2023-01-13T18:56:14.217Z,6.39
2023-01-13T18:58:51.910Z,6.30
2023-01-13T19:01:29.624Z,6.29
2023-01-13T19:04:10.309Z,6.25
2023-01-13T19:06:47.789Z,6.27
2023-01-13T19:09:28.665Z,6.40
2023-01-13T19:12:01.194Z,6.45
2023-01-13T19:14:42.275Z,6.48
2023-01-13T19:17:17.153Z,6.58
2023-01-13T19:19:56.076Z,6.55
2023-01-13T19:22:30.968Z,6.53
2023-01-13T19:25:01.763Z,6.49
2023-01-13T19:27:31.881Z,6.50
2023-01-13T19:30:03.516Z,6.49
2023-01-13T19:32:33.676Z,6.44
2023-01-13T19:35:02.135Z,6.44
2023-01-13T19:37:33.799Z,6.36
2023-01-13T19:40:09.298Z,6.43
2023-01-13T19:42:57.234Z,6.40
2023-01-13T19:45:26.999Z,6.41
2023-01-13T19:48:01.938Z,6.26
2023-01-13T19:50:37.474Z,6.36
2023-01-13T19:53:07.292Z,6.30
2023-01-13T19:55:36.631Z,6.32
2023-01-13T19:58:04.333Z,6.22
2023-01-13T20:00:34.927Z,6.15
2023-01-13T20:03:04.748Z,6.13
2023-01-13T20:05:33.915Z,6.14
2023-01-13T20:08:02.298Z,6.09
2023-01-13T20:10:30.801Z,6.14
2023-01-13T20:12:59.901Z,6.22
2023-01-13T20:15:31.492Z,6.43
2023-01-13T20:18:00.823Z,6.44
2023-01-13T20:20:31.112Z,6.39
2023-01-13T20:23:01.104Z,6.44
2023-01-13T20:25:31.166Z,6.39
2023-01-13T20:28:02.332Z,6.37
2023-01-13T20:30:31.878Z,6.36
2023-01-13T20:33:01.566Z,6.32
2023-01-13T20:35:30.071Z,6.28
2023-01-13T20:37:58.445Z,6.27
2023-01-13T20:40:26.904Z,6.24
2023-01-13T20:42:55.309Z,6.31
2023-01-13T20:45:23.932Z,6.36
2023-01-13T20:47:53.873Z,6.31
2023-01-13T20:50:23.678Z,6.48
2023-01-13T20:52:52.660Z,6.37
2023-01-13T20:55:20.407Z,6.34
2023-01-13T20:57:50.118Z,6.20
2023-01-13T21:00:18.340Z,6.22
2023-01-13T21:02:45.766Z,6.35
2023-01-13T21:05:14.337Z,6.34
2023-01-13T21:07:42.521Z,6.22
2023-01-13T21:10:11.566Z,6.10
2023-01-13T21:12:57.864Z,6.10
2023-01-13T21:15:27.882Z,5.85
2023-01-13T21:18:16.224Z,5.95
2023-01-13T21:20:46.268Z,6.00
2023-01-13T21:23:16.135Z,5.89
2023-01-13T21:25:45.980Z,5.88
2023-01-13T21:28:18.200Z,5.82
2023-01-13T21:30:50.049Z,5.67
2023-01-13T21:33:18.091Z,5.77
2023-01-13T21:35:48.091Z,5.75
2023-01-13T21:38:17.783Z,5.76
2023-01-13T21:41:07.665Z,5.85
2023-01-13T21:43:56.795Z,5.90
2023-01-13T21:46:44.094Z,5.89
2023-01-13T21:49:11.462Z,5.99
2023-01-13T21:51:38.942Z,6.04
2023-01-13T21:54:08.628Z,6.09
2023-01-13T21:56:38.465Z,6.04
2023-01-13T21:59:08.265Z,6.05
2023-01-13T22:02:11.204Z,6.03
2023-01-13T22:04:27.399Z,5.78
2023-01-13T22:06:55.824Z,5.82
2023-01-13T22:09:24.385Z,5.77
2023-01-13T22:11:54.083Z,5.90
2023-01-13T22:14:24.925Z,5.70
2023-01-13T22:16:56.880Z,5.66
2023-01-13T22:19:26.879Z,5.78
2023-01-13T22:21:57.762Z,5.79
2023-01-13T22:24:30.191Z,5.81
2023-01-13T22:27:00.211Z,5.74
2023-01-13T22:29:29.902Z,5.79
2023-01-13T22:31:59.920Z,5.69
2023-01-13T22:34:30.095Z,5.52
2023-01-13T22:37:01.726Z,5.70
2023-01-13T22:39:30.900Z,5.62
2023-01-13T22:42:01.081Z,5.57
2023-01-13T22:44:30.943Z,5.49
2023-01-13T22:47:01.240Z,5.40
2023-01-13T22:49:30.748Z,5.23
2023-01-13T22:52:00.653Z,5.18
2023-01-13T22:54:30.562Z,5.18
2023-01-13T22:57:00.267Z,5.17
2023-01-13T22:59:31.889Z,5.14
2023-01-13T23:02:01.969Z,5.27
2023-01-13T23:04:32.215Z,5.23
2023-01-13T23:07:02.373Z,5.17
2023-01-13T23:09:32.490Z,5.20
2023-01-13T23:12:02.528Z,5.22
2023-01-13T23:14:32.665Z,5.18
2023-01-13T23:17:02.850Z,5.22
2023-01-13T23:19:33.080Z,5.34
2023-01-13T23:22:03.170Z,5.46
2023-01-13T23:24:33.302Z,5.46
2023-01-13T23:27:03.568Z,5.37
2023-01-13T23:29:33.659Z,5.28
2023-01-13T23:32:04.204Z,5.41
2023-01-13T23:34:34.305Z,5.38
2023-01-13T23:37:04.385Z,5.38
2023-01-13T23:39:34.440Z,5.48
2023-01-13T23:42:05.127Z,5.45
2023-01-13T23:44:35.556Z,5.42
2023-01-13T23:47:05.668Z,5.55
2023-01-13T23:49:35.711Z,5.63
2023-01-13T23:52:04.688Z,5.71
2023-01-13T23:54:32.682Z,5.66
2023-01-13T23:57:01.077Z,5.60
2023-01-13T23:59:30.714Z,5.62
